createdAt,value
2017-03-03T00:00:02.665Z,0
2017-03-03T00:05:02.822Z,0
2017-03-03T00:10:02.731Z,0
2017-03-03T00:15:02.547Z,0
2017-03-03T00:20:03.229Z,0
2017-03-03T00:25:03.344Z,0
2017-03-03T00:30:03.325Z,0
2017-03-03T00:35:03.153Z,0
2017-03-03T00:40:02.994Z,0
2017-03-03T00:45:02.997Z,0
2017-03-03T00:50:02.713Z,0
2017-03-03T00:55:02.747Z,0
2017-03-03T01:00:03.372Z,0
2017-03-03T01:05:06.260Z,0
2017-03-03T01:10:02.989Z,0
2017-03-03T01:15:02.732Z,0
2017-03-03T01:20:02.608Z,0
2017-03-03T01:25:02.555Z,0
2017-03-03T01:30:02.536Z,0
2017-03-03T01:35:02.507Z,0
2017-03-03T01:40:02.544Z,0
2017-03-03T01:45:03.470Z,0
2017-03-03T01:50:03.362Z,0
2017-03-03T01:55:03.304Z,0
2017-03-03T02:00:03.246Z,0
2017-03-03T02:05:02.977Z,0
2017-03-03T02:10:02.905Z,0
2017-03-03T02:15:03.028Z,0
2017-03-03T02:20:02.972Z,0
2017-03-03T02:25:02.676Z,0
2017-03-03T02:30:02.675Z,0
2017-03-03T02:35:03.445Z,0
2017-03-03T02:40:03.441Z,0
2017-03-03T02:45:03.514Z,0
2017-03-03T02:50:02.453Z,0
2017-03-03T02:55:03.416Z,0
2017-03-03T03:00:03.263Z,0
2017-03-03T03:05:03.271Z,0
2017-03-03T03:10:03.142Z,0
2017-03-03T03:15:02.944Z,0
2017-03-03T03:20:02.800Z,0
2017-03-03T03:25:02.476Z,0
2017-03-03T03:30:02.591Z,0
2017-03-03T03:35:03.433Z,0
2017-03-03T03:40:03.196Z,0
2017-03-03T03:45:03.033Z,0
2017-03-03T03:50:02.756Z,0
2017-03-03T03:55:03.447Z,0
2017-03-03T04:00:03.213Z,0
2017-03-03T04:05:03.027Z,0
2017-03-03T04:10:03.163Z,0
2017-03-03T04:15:03.100Z,0
2017-03-03T04:20:03.092Z,0
2017-03-03T04:25:02.848Z,0
2017-03-03T04:30:02.700Z,0
2017-03-03T04:35:02.961Z,0
2017-03-03T04:40:03.097Z,0
2017-03-03T04:45:02.994Z,0
2017-03-03T04:50:02.835Z,0
2017-03-03T04:55:02.767Z,0
2017-03-03T05:00:02.776Z,0
2017-03-03T05:05:02.762Z,0
2017-03-03T05:10:02.904Z,0
2017-03-03T05:15:02.750Z,0
2017-03-03T05:20:02.736Z,0
2017-03-03T05:25:03.457Z,0
2017-03-03T05:30:03.540Z,0
2017-03-03T05:35:02.583Z,0
2017-03-03T05:40:03.350Z,0
2017-03-03T05:45:03.223Z,1
2017-03-03T05:50:03.138Z,3
2017-03-03T05:55:02.774Z,7
2017-03-03T06:00:02.843Z,29
2017-03-03T06:05:02.797Z,38
2017-03-03T06:10:02.730Z,50
2017-03-03T06:15:03.351Z,63
2017-03-03T06:20:03.113Z,101
2017-03-03T06:25:02.904Z,278
2017-03-03T06:30:02.869Z,409
2017-03-03T06:35:02.637Z,539
2017-03-03T06:40:02.620Z,807
2017-03-03T06:45:02.534Z,950
2017-03-03T06:50:02.599Z,1000
2017-03-03T06:55:03.333Z,1000
2017-03-03T07:00:03.255Z,1000
2017-03-03T07:05:03.046Z,1000
2017-03-03T07:10:02.983Z,2000
2017-03-03T07:15:02.717Z,2000
2017-03-03T07:20:02.594Z,2000
2017-03-03T07:25:03.424Z,3000
2017-03-03T07:30:03.447Z,2000
2017-03-03T07:35:03.384Z,2000
2017-03-03T07:40:03.259Z,3000
2017-03-03T07:45:02.977Z,3000
2017-03-03T07:50:03.007Z,3000
2017-03-03T07:55:02.858Z,4000
2017-03-03T08:00:02.876Z,4000
2017-03-03T08:05:02.694Z,4000
2017-03-03T08:10:03.501Z,5000
2017-03-03T08:15:03.365Z,5000
2017-03-03T08:20:03.381Z,13000
2017-03-03T08:25:03.351Z,17000
2017-03-03T08:30:03.464Z,15000
2017-03-03T08:35:03.233Z,13000
2017-03-03T08:40:03.138Z,15000
2017-03-03T08:45:03.001Z,12000
2017-03-03T08:50:02.731Z,10000
2017-03-03T08:55:02.820Z,7000
2017-03-03T09:00:02.788Z,7000
2017-03-03T09:05:02.573Z,8000
2017-03-03T09:10:02.653Z,10000
2017-03-03T09:15:03.532Z,8000
2017-03-03T09:20:03.431Z,8000
2017-03-03T09:25:03.288Z,8000
2017-03-03T09:30:03.004Z,10000
2017-03-03T09:35:02.896Z,13000
2017-03-03T09:40:02.882Z,13000
2017-03-03T09:45:02.976Z,18000
2017-03-03T09:50:02.860Z,19000
2017-03-03T09:55:02.720Z,17000
2017-03-03T10:00:02.803Z,19000
2017-03-03T10:05:02.901Z,25000
2017-03-03T10:10:02.959Z,25000
2017-03-03T10:15:02.663Z,23000
2017-03-03T10:20:02.559Z,19000
2017-03-03T10:25:03.206Z,18000
2017-03-03T10:30:02.990Z,14000
2017-03-03T10:35:02.832Z,14000
2017-03-03T10:40:02.633Z,10000
2017-03-03T10:45:03.450Z,10000
2017-03-03T10:50:03.685Z,13000
2017-03-03T10:55:03.309Z,19000
2017-03-03T11:00:03.378Z,22000
2017-03-03T11:05:03.245Z,23000
2017-03-03T11:10:03.142Z,24000
2017-03-03T11:15:02.943Z,35000
2017-03-03T11:20:02.726Z,31000
2017-03-03T11:25:03.492Z,36000
2017-03-03T11:30:03.351Z,32000
2017-03-03T11:35:03.146Z,16000
2017-03-03T11:40:03.009Z,10000
2017-03-03T11:45:02.729Z,8000
2017-03-03T11:50:02.587Z,7000
2017-03-03T11:55:03.410Z,7000
2017-03-03T12:00:03.380Z,6000
2017-03-03T12:05:03.186Z,7000
2017-03-03T12:10:03.366Z,7000
2017-03-03T12:15:03.449Z,7000
2017-03-03T12:20:02.557Z,7000
2017-03-03T12:25:02.486Z,7000
2017-03-03T12:30:03.338Z,6000
2017-03-03T12:35:03.196Z,5000
2017-03-03T12:40:03.046Z,4000
2017-03-03T12:45:03.107Z,4000
2017-03-03T12:50:03.001Z,4000
2017-03-03T12:55:03.241Z,4000
2017-03-03T13:00:03.101Z,4000
2017-03-03T13:05:03.226Z,5000
2017-03-03T13:10:03.237Z,5000
2017-03-03T13:15:03.246Z,5000
2017-03-03T13:20:03.228Z,4000
2017-03-03T13:25:03.055Z,5000
2017-03-03T13:30:02.941Z,4000
2017-03-03T13:35:02.667Z,3000
2017-03-03T13:40:02.852Z,2000
2017-03-03T13:45:02.891Z,2000
2017-03-03T13:50:03.116Z,1000
2017-03-03T13:55:02.865Z,1000
2017-03-03T14:00:02.830Z,1000
2017-03-03T14:05:02.961Z,1000
2017-03-03T14:10:03.239Z,1000
2017-03-03T14:15:03.510Z,1000
2017-03-03T14:20:02.553Z,1000
2017-03-03T14:25:02.541Z,2000
2017-03-03T14:30:02.526Z,2000
2017-03-03T14:35:03.291Z,2000
2017-03-03T14:40:03.218Z,2000
2017-03-03T14:45:03.131Z,3000
2017-03-03T14:50:03.125Z,3000
2017-03-03T14:55:03.115Z,2000
2017-03-03T15:00:02.939Z,2000
2017-03-03T15:05:02.977Z,2000
2017-03-03T15:10:02.902Z,3000
2017-03-03T15:15:02.621Z,2000
2017-03-03T15:20:02.864Z,2000
2017-03-03T15:25:02.910Z,2000
2017-03-03T15:30:02.828Z,2000
2017-03-03T15:35:02.573Z,2000
2017-03-03T15:40:02.667Z,2000
2017-03-03T15:45:02.596Z,1000
2017-03-03T15:50:02.457Z,1000
2017-03-03T15:55:02.459Z,1000
2017-03-03T16:00:02.502Z,1000
2017-03-03T16:05:03.502Z,1000
2017-03-03T16:10:03.396Z,1000
2017-03-03T16:15:03.327Z,1000
2017-03-03T16:20:03.363Z,1000
2017-03-03T16:25:03.259Z,734
2017-03-03T16:30:03.203Z,639
2017-03-03T16:35:03.151Z,610
2017-03-03T16:40:03.230Z,527
2017-03-03T16:45:03.292Z,354
2017-03-03T16:50:03.110Z,335
2017-03-03T16:55:02.931Z,261
2017-03-03T17:00:02.847Z,136
2017-03-03T17:05:02.900Z,73
2017-03-03T17:10:02.735Z,53
2017-03-03T17:15:02.585Z,28
2017-03-03T17:20:03.295Z,28
2017-03-03T17:25:03.098Z,34
2017-03-03T17:30:02.956Z,19
2017-03-03T17:35:02.777Z,7
2017-03-03T17:40:02.830Z,3
2017-03-03T17:45:02.473Z,1
2017-03-03T17:50:03.219Z,0
2017-03-03T17:55:02.965Z,0
2017-03-03T18:00:02.759Z,0
2017-03-03T18:05:02.651Z,0
2017-03-03T18:10:02.713Z,0
2017-03-03T18:15:03.391Z,0
2017-03-03T18:20:03.103Z,0
2017-03-03T18:25:02.980Z,0
2017-03-03T18:30:02.852Z,0
2017-03-03T18:35:02.810Z,0
2017-03-03T18:40:02.914Z,0
2017-03-03T18:45:02.721Z,0
2017-03-03T18:50:02.529Z,0
2017-03-03T18:55:03.386Z,0
2017-03-03T19:00:03.201Z,0
2017-03-03T19:05:03.044Z,0
2017-03-03T19:10:02.921Z,0
2017-03-03T19:15:02.728Z,0
2017-03-03T19:20:02.559Z,0
2017-03-03T19:25:03.415Z,0
2017-03-03T19:30:03.392Z,0
2017-03-03T19:35:03.118Z,0
2017-03-03T19:40:03.048Z,0
2017-03-03T19:45:02.774Z,0
2017-03-03T19:50:03.454Z,0
2017-03-03T19:55:03.363Z,0
2017-03-03T20:00:03.220Z,0
2017-03-03T20:05:03.130Z,0
2017-03-03T20:10:03.323Z,0
2017-03-03T20:15:03.159Z,0
2017-03-03T20:20:03.030Z,0
2017-03-03T20:25:03.034Z,0
2017-03-03T20:30:03.066Z,0
2017-03-03T20:35:03.120Z,0
2017-03-03T20:40:02.881Z,0
2017-03-03T20:45:02.632Z,0
2017-03-03T20:50:02.549Z,0
2017-03-03T20:55:03.427Z,0
2017-03-03T21:00:03.326Z,0
2017-03-03T21:05:02.981Z,0
2017-03-03T21:10:02.916Z,0
2017-03-03T21:15:02.769Z,0
2017-03-03T21:20:02.801Z,0
2017-03-03T21:25:02.522Z,0
2017-03-03T21:30:02.579Z,0
2017-03-03T21:35:03.448Z,0
2017-03-03T21:40:02.611Z,0
2017-03-03T21:45:03.422Z,0
2017-03-03T21:50:03.371Z,0
2017-03-03T21:55:03.392Z,0
2017-03-03T22:00:03.200Z,0
2017-03-03T22:05:03.309Z,0
2017-03-03T22:10:03.154Z,0
2017-03-03T22:15:03.163Z,0
2017-03-03T22:20:02.997Z,0
2017-03-03T22:25:02.817Z,0
2017-03-03T22:30:02.799Z,0
2017-03-03T22:35:02.673Z,0
2017-03-03T22:40:02.636Z,0
2017-03-03T22:45:03.489Z,0
2017-03-03T22:50:03.367Z,0
2017-03-03T22:55:03.189Z,0
2017-03-03T23:00:02.994Z,0
2017-03-03T23:05:03.074Z,0
2017-03-03T23:10:03.178Z,0
2017-03-03T23:15:02.823Z,0
2017-03-03T23:20:02.842Z,0
2017-03-03T23:25:02.931Z,0
2017-03-03T23:30:02.866Z,0
2017-03-03T23:35:02.720Z,0
2017-03-03T23:40:02.545Z,0
2017-03-03T23:45:03.374Z,0
2017-03-03T23:50:03.297Z,0
2017-03-03T23:55:02.954Z,0
